• Join FlightAware (Why Join?)
  • Login
  • US Flag 
09:28PM EDT


 

Airport Tracker/Info


-or-


 

Live Flight TrackerFlight Track Log ✈ SWA134 ✈ 06-May-2013 ✈ KBWI - KPHX

Flight Track Log - Related Links

Times and Time Zones

All times are in EDT time to prevent confusion due to time zone crossing. See the SWA134 flight status page for this flight to view local times or setup timezone preferences in your user account.

Time Position Orientation Groundspeed Altitude Reporting Facility
EDT Latitude Longitude Course Direction KTS MPH feet Rate Location/Type
09:03PM 39.1167 -76.6833 297° West 216 249 2,900  Level Potomac TRACON
09:04PM 39.1500 -76.7667 297° West 266 306 5,300 3,000 Climbing Potomac TRACON
09:05PM 39.1833 -76.8667 293° West 305 351 9,000 3,780 Climbing Potomac TRACON
09:06PM 39.2167 -76.9667 293° West 319 367 12,900 3,120 Climbing Potomac TRACON
09:08PM 39.1603 -77.2539 256° West 349 402 19,400 2,700 Climbing Washington Center
09:09PM 39.1189 -77.3842 248° West 371 427 22,100 2,580 Climbing Washington Center
09:10PM 39.0772 -77.5194 248° West 397 457 24,700 2,280 Climbing Washington Center
09:11PM 39.0311 -77.6572 247° West 417 480 26,800 1,920 Climbing Washington Center
09:12PM 38.9914 -77.7869 249° West 434 499 28,600 1,680 Climbing Washington Center
09:14PM 38.9893 -77.9804 254° West  Level Estimated
09:14PM 38.8939 -78.0881 254° West 453 521 31,900  Level Washington Center
09:15PM 38.8550 -78.2439 252° West 458 527 34,100 1,980 Climbing Washington Center
09:16PM 38.8511 -78.4092 268° West 458 527 36,000 1,740 Climbing Washington Center
09:17PM 38.8514 -78.5719 270° West 458 527 37,600 960 Climbing Washington Center
09:18PM 38.8494 -78.7369 269° West 458 527 38,000 960 Climbing Washington Center
09:19PM 38.8472 -78.8969 269° West 458 527 39,600 660 Climbing Washington Center
09:21PM 38.8422 -79.2139 269° West 458 527 40,000 120 Climbing Washington Center
09:22PM 38.8417 -79.3683 270° West 453 521 40,000  Level Washington Center
09:23PM 38.8367 -79.5253 268° West 453 521 40,000  Level Washington Center
09:25PM 38.8317 -79.6803 268° West  Level FlightAware Approximate
09:27PM 38.8206 -80.0772 267° West 444 511 40,000  Level Indianapolis Center
09:28PM 38.8167 -80.2375 268° West 448 516 40,000  Level Indianapolis Center
09:29PM 38.8111 -80.3989 268° West 452 520 40,000  Level Indianapolis Center
09:30PM 38.8078 -80.5589 269° West 449 517 40,000  Level Indianapolis Center
09:31PM 38.8025 -80.7194 268° West 451 519 40,000  Level Indianapolis Center
09:32PM 38.7936 -80.7136 267° West  Level FlightAware Approximate
09:32PM 38.7981 -80.8806 268° West 453 521 40,000  Level Indianapolis Center
09:34PM 38.7853 -81.2342 267° West 454 522 40,000  Level Indianapolis Center
09:36PM 38.7750 -81.5453 268° West 461 531 40,000  Level Indianapolis Center
09:37PM 38.7678 -81.7103 267° West 458 527 40,000  Level Indianapolis Center
09:38PM 38.7608 -81.8736 267° West 461 531 40,000  Level Indianapolis Center
09:39PM 38.7536 -82.0364 267° West 459 528 40,000  Level Indianapolis Center
09:41PM 38.7408 -82.3997 268° West 466 536 40,000  Level Indianapolis Center
09:42PM 38.7339 -82.5653 267° West 466 536 40,000  Level Indianapolis Center
09:43PM 38.7267 -82.7306 267° West 465 535 40,000  Level Indianapolis Center
09:44PM 38.7192 -82.8964 267° West 465 535 40,000  Level Indianapolis Center
09:45PM 38.7119 -83.0625 267° West 467 537 40,000  Level Indianapolis Center
09:46PM 38.7047 -83.2281 267° West 467 537 40,000  Level Indianapolis Center
09:47PM 38.6969 -83.3969 267° West 469 540 40,000  Level Indianapolis Center
09:49PM 38.6818 -83.6220 265° West  Level FlightAware Approximate
09:49PM 38.6797 -83.7314 265° West 465 535 40,000  Level Indianapolis Center
09:50PM 38.6714 -83.9008 266° West 471 542 40,000  Level Indianapolis Center
09:51PM 38.6619 -84.0686 266° West 470 541 40,000  Level Indianapolis Center
09:52PM 38.6528 -84.2656 267° West 471 542 40,000  Level Indianapolis Center
09:53PM 38.6572 -84.4336 272° West 469 540 40,000  Level Indianapolis Center
09:54PM 38.6775 -84.5842 280° West 463 533 40,000  Level Indianapolis Center
09:55PM 38.7103 -84.7464 285° West 467 537 40,000  Level Indianapolis Center
09:57PM 38.7767 -85.0650 285° West 464 534 40,000  Level Indianapolis Center
09:58PM 38.8106 -85.2242 285° West 464 534 40,000  Level Indianapolis Center
09:59PM 38.8519 -85.4131 286° West 461 531 40,000  Level Indianapolis Center
10:00PM 38.8653 -85.5744 276° West 458 527 40,000  Level Indianapolis Center
10:01PM 38.8556 -85.7378 266° West 460 529 40,000  Level Indianapolis Center
10:02PM 38.8467 -85.9042 266° West 458 527 40,000  Level Indianapolis Center
10:03PM 38.8372 -86.0661 266° West 456 525 40,000  Level Indianapolis Center
10:04PM 38.8281 -86.2264 266° West 452 520 40,000  Level Indianapolis Center
10:05PM 38.8186 -86.3883 266° West 454 522 40,000  Level Indianapolis Center
10:06PM 38.8094 -86.5492 266° West 453 521 40,000  Level Indianapolis Center
10:07PM 38.7994 -86.7094 265° West 451 519 40,000  Level Indianapolis Center
10:08PM 38.7894 -86.8700 265° West 454 522 40,000  Level Indianapolis Center
10:09PM 38.7800 -87.0297 266° West 453 521 40,000  Level Indianapolis Center
10:10PM 38.7694 -87.1900 265° West 453 521 40,000  Level Indianapolis Center
10:12PM 38.7478 -87.5119 265° West 452 520 40,000  Level Kansas City Center
10:13PM 38.7350 -87.7017 265° West 451 519 40,000  Level Indianapolis Center
10:15PM 38.7239 -87.8619 265° West 453 521 40,000  Level Indianapolis Center
10:15PM 38.7119 -88.0206 265° West 449 517 40,000  Level Kansas City Center
10:16PM 38.7003 -88.1783 265° West 446 513 40,000  Level Kansas City Center
10:18PM 38.6894 -88.3353 265° West 444 511 40,000  Level Kansas City Center
10:19PM 38.6769 -88.4925 264° West 443 510 40,000  Level Kansas City Center
10:20PM 38.6661 -88.6494 265° West 443 510 40,000  Level Kansas City Center
10:21PM 38.6531 -88.7958 264° West 444 511 40,000  Level Kansas City Center
10:22PM 38.6419 -88.9533 265° West 446 513 40,000  Level Kansas City Center
10:23PM 38.6278 -89.1347 264° West 448 516 40,000  Level Kansas City Center
10:24PM 38.6150 -89.2919 264° West 447 514 40,000  Level Kansas City Center
10:25PM 38.6006 -89.4633 264° West 451 519 40,000  Level Kansas City Center
10:26PM 38.5875 -89.6225 264° West 452 520 40,000  Level Kansas City Center
10:27PM 38.5747 -89.7800 264° West 452 520 40,000  Level Kansas City Center
10:28PM 38.5603 -89.9364 263° West 447 514 40,000  Level Kansas City Center
10:29PM 38.5456 -90.0922 263° West 442 509 40,000  Level Kansas City Center
10:31PM 38.5156 -90.4139 263° West 437 503 40,000  Level Kansas City Center
10:32PM 38.5022 -90.5661 264° West 433 498 40,000  Level Kansas City Center
10:33PM 38.4875 -90.7144 263° West 434 499 40,000  Level Kansas City Center
10:34PM 38.4728 -90.8667 263° West 433 498 40,000  Level Kansas City Center
10:35PM 38.4589 -91.0175 263° West 431 496 40,000  Level Kansas City Center
10:36PM 38.4436 -91.1689 263° West 432 497 40,000  Level Kansas City Center
10:37PM 38.4297 -91.3206 263° West 432 497 40,000  Level Kansas City Center
10:38PM 38.4147 -91.4758 263° West 428 493 40,000  Level Kansas City Center
10:39PM 38.3981 -91.6261 262° West 430 495 40,000  Level Kansas City Center
10:40PM 38.3839 -91.7753 263° West 428 493 40,000  Level Kansas City Center
10:41PM 38.3681 -91.9233 262° West 425 489 40,000  Level Kansas City Center
10:42PM 38.3486 -92.1033 262° West 428 493 40,000  Level Kansas City Center
10:43PM 38.3314 -92.2525 262° West 429 494 40,000  Level Kansas City Center
10:44PM 38.3153 -92.4006 262° West 429 494 40,000  Level Kansas City Center
10:45PM 38.2992 -92.5483 262° West 426 490 40,000  Level Kansas City Center
10:47PM 38.2614 -92.7674 258° West  Level FlightAware Approximate
10:47PM 38.2653 -92.8508 258° West 433 498 40,000  Level Kansas City Center
10:48PM 38.2489 -93.0019 262° West 433 498 40,000  Level Kansas City Center
10:49PM 38.2308 -93.1522 261° West 431 496 40,000  Level Kansas City Center
10:50PM 38.2133 -93.3017 262° West 429 494 40,000  Level Kansas City Center
10:51PM 38.1956 -93.4511 261° West 429 494 40,000  Level Kansas City Center
10:52PM 38.1781 -93.6008 262° West 428 493 40,000  Level Kansas City Center
10:53PM 38.1600 -93.7489 261° West 426 490 40,000  Level Kansas City Center
10:54PM 38.1375 -93.9258 261° West 423 487 40,000  Level Kansas City Center
10:55PM 38.1206 -94.0700 262° West 417 480 40,000  Level Kansas City Center
10:56PM 38.1025 -94.2111 261° West 415 478 40,000  Level Kansas City Center
10:57PM 38.0847 -94.3506 261° West 416 479 40,000  Level Kansas City Center
10:58PM 38.0664 -94.4894 261° West 416 479 40,000  Level Kansas City Center
10:59PM 38.0453 -94.6514 261° West 416 479 40,000  Level Kansas City Center
11:00PM 38.0275 -94.7908 261° West 418 481 40,000  Level Kansas City Center
11:01PM 38.0092 -94.9286 260° West 415 478 40,000  Level Kansas City Center
11:02PM 37.9875 -95.0897 260° West 414 476 40,000  Level Kansas City Center
11:03PM 37.9692 -95.2331 261° West 421 484 40,000  Level Kansas City Center
11:04PM 37.9497 -95.3736 260° West 421 484 40,000  Level Kansas City Center
11:05PM 37.9275 -95.5358 260° West 418 481 40,000  Level Kansas City Center
11:06PM 37.9072 -95.6803 260° West 416 479 40,000  Level Kansas City Center
11:07PM 37.8867 -95.8294 260° West 424 488 40,000  Level Kansas City Center
11:08PM 37.8650 -95.9789 260° West 430 495 40,000  Level Kansas City Center
11:09PM 37.8442 -96.1258 260° West 424 488 40,000  Level Kansas City Center
11:10PM 37.8242 -96.2731 260° West 425 489 40,000  Level Kansas City Center
11:11PM 37.8028 -96.4186 260° West 422 486 40,000  Level Kansas City Center
11:12PM 37.7817 -96.5631 260° West 419 482 40,000  Level Kansas City Center
11:13PM 37.7603 -96.7061 259° West 415 478 40,000  Level Kansas City Center
11:14PM 37.7389 -96.8492 259° West 415 478 40,000  Level Kansas City Center
11:15PM 37.7175 -96.9917 259° West 415 478 40,000  Level Kansas City Center
11:16PM 37.6961 -97.1344 259° West 413 475 40,000  Level Kansas City Center
11:17PM 37.6739 -97.2792 259° West 417 480 40,000  Level Kansas City Center
11:18PM 37.6506 -97.4228 258° West 417 480 40,000  Level Kansas City Center
11:20PM 37.6094 -97.5640 250° West  Level FlightAware Approximate
11:20PM 37.6283 -97.5689 250° West 420 483 40,000  Level Kansas City Center
11:21PM 37.6056 -97.7147 259° West 420 483 40,000  Level Kansas City Center
11:22PM 37.5817 -97.8597 258° West 418 481 40,000  Level Kansas City Center
11:23PM 37.5592 -98.0028 259° West 414 476 40,000  Level Kansas City Center
11:24PM 37.5367 -98.1458 259° West 414 476 40,000  Level Kansas City Center
11:25PM 37.5081 -98.3164 258° West 412 474 40,000  Level Kansas City Center
11:26PM 37.4853 -98.4592 259° West 415 478 40,000  Level Kansas City Center
11:27PM 37.4608 -98.6019 258° West 415 478 40,000  Level Kansas City Center
11:28PM 37.4381 -98.7478 259° West 421 484 40,000  Level Kansas City Center
11:29PM 37.4133 -98.8886 258° West 417 480 40,000  Level Kansas City Center
11:30PM 37.3892 -99.0306 258° West 415 478 40,000  Level Kansas City Center
11:31PM 37.3639 -99.1711 257° West 413 475 40,000  Level Kansas City Center
11:32PM 37.3400 -99.3133 258° West 415 478 40,000  Level Kansas City Center
11:33PM 37.3100 -99.4614 256° West 416 479 40,000  Level Kansas City Center
11:34PM 37.2844 -99.5961 257° West 416 479 40,000  Level Kansas City Center
11:35PM 37.2550 -99.7544 257° West 416 479 40,000  Level Kansas City Center
11:36PM 37.2278 -99.8903 256° West 418 481 40,000  Level Kansas City Center
11:37PM 37.1989 -100.0275 255° West 422 486 40,000  Level Kansas City Center
11:38PM 37.1678 -100.1861 256° West 421 484 40,000  Level Kansas City Center
11:39PM 37.1406 -100.3242 256° West 422 486 40,000  Level Kansas City Center
11:40PM 37.1131 -100.4617 256° West 422 486 40,000  Level Kansas City Center
11:41PM 37.0806 -100.6211 256° West 421 484 40,000  Level Kansas City Center
11:42PM 37.0514 -100.7594 255° West 425 489 40,000  Level Kansas City Center
11:43PM 37.0222 -100.8967 255° West 425 489 40,000  Level Kansas City Center
11:44PM 36.9897 -101.0569 256° West 425 489 40,000  Level Kansas City Center
11:45PM 36.9600 -101.1944 255° West 426 490 40,000  Level Kansas City Center
11:46PM 36.9314 -101.3306 255° West 424 488 40,000  Level Kansas City Center
11:47PM 36.8975 -101.4894 255° West 424 488 40,000  Level Kansas City Center
11:48PM 36.8689 -101.6250 255° West 422 486 40,000  Level Kansas City Center
11:49PM 36.8383 -101.7611 254° West 424 488 40,000  Level Kansas City Center
11:50PM 36.8039 -101.9197 255° West 424 488 40,000  Level Kansas City Center
11:51PM 36.7744 -102.0550 255° West 423 487 40,000  Level Kansas City Center
11:52PM 36.7453 -102.1903 255° West 422 486 40,000  Level Kansas City Center
11:53PM 36.7094 -102.3500 254° West 426 490 40,000  Level Kansas City Center
11:54PM 36.6778 -102.4869 254° West 429 494 40,000  Level Kansas City Center
11:55PM 36.6414 -102.6561 255° West 433 498 40,000  Level Albuquerque Center
11:56PM 36.6042 -102.8144 254° West 428 493 40,000  Level Albuquerque Center
11:57PM 36.5731 -102.9547 255° West 431 496 40,000  Level Albuquerque Center
11:58PM 36.5403 -103.0983 254° West 429 494 40,000  Level Albuquerque Center
11:59PM 36.5078 -103.2400 254° West 425 489 40,000  Level Albuquerque Center
12:00AM 36.4758 -103.3806 254° West 422 486 40,000  Level Albuquerque Center
12:01AM 36.4433 -103.5200 254° West 420 483 40,000  Level Albuquerque Center
12:02AM 36.4108 -103.6567 254° West 413 475 40,000  Level Albuquerque Center
12:03AM 36.3781 -103.7942 254° West 412 474 40,000  Level Albuquerque Center
12:04AM 36.3453 -103.9325 254° West 414 476 40,000  Level Albuquerque Center
12:05AM 36.3125 -104.0714 254° West 416 479 40,000  Level Albuquerque Center
12:06AM 36.2792 -104.2081 253° West 414 476 40,000  Level Albuquerque Center
12:07AM 36.2447 -104.3439 253° West 413 475 40,000  Level Albuquerque Center
12:08AM 36.2122 -104.4800 254° West 411 473 40,000  Level Albuquerque Center
12:09AM 36.1808 -104.6119 254° West 402 463 40,100  Climbing Albuquerque Center
12:10AM 36.1469 -104.7461 253° West 404 465 40,000 -60 Descending Albuquerque Center
12:11AM 36.1097 -104.8989 253° West 401 461 40,000  Level Albuquerque Center
12:12AM 36.0764 -105.0297 253° West 399 459 40,000  Level Albuquerque Center
12:14AM 36.0444 -105.1619 253° West 399 459 40,000  Level Albuquerque Center
12:15AM 36.0094 -105.2953 252° West 404 465 40,000  Level Albuquerque Center
12:16AM 35.9761 -105.4272 253° West 402 463 40,000  Level Albuquerque Center
12:17AM 35.9461 -105.5478 253° West 399 459 40,000  Level Albuquerque Center
12:18AM 35.9147 -105.6775 253° West 396 456 40,000  Level Albuquerque Center
12:19AM 35.8800 -105.8069 252° West 399 459 40,000  Level Albuquerque Center
12:20AM 35.8458 -105.9381 252° West 402 463 40,000  Level Albuquerque Center
12:21AM 35.8111 -106.0697 252° West 405 466 40,000  Level Albuquerque Center
12:22AM 35.7756 -106.2125 253° West 405 466 40,000  Level Albuquerque Center
12:23AM 35.7403 -106.3558 253° West 395 455 40,000  Level Albuquerque Center
12:24AM 35.7067 -106.4781 251° West 393 452 40,000  Level Albuquerque Center
12:25AM 35.6753 -106.6006 253° West 394 453 40,000  Level Albuquerque Center
12:26AM 35.6392 -106.7364 252° West 395 455 40,000  Level Albuquerque Center
12:27AM 35.6047 -106.8633 252° West 396 456 40,000  Level Albuquerque Center
12:28AM 35.5686 -106.9919 251° West 399 459 40,000  Level Albuquerque Center
12:29AM 35.5275 -107.1144 248° West 396 456 40,000  Level Albuquerque Center
12:30AM 35.4842 -107.2453 248° West 387 445 40,000  Level Albuquerque Center
12:31AM 35.4461 -107.3597 248° West 381 438 40,000  Level Albuquerque Center
12:32AM 35.4014 -107.4944 248° West 381 438 40,000  Level Albuquerque Center
12:33AM 35.3619 -107.6128 248° West 387 445 40,000  Level Albuquerque Center
12:34AM 35.3231 -107.7303 248° West 388 447 40,000  Level Albuquerque Center
12:35AM 35.2758 -107.8678 247° West 391 450 40,000  Level Albuquerque Center
12:36AM 35.2369 -107.9850 248° West 390 449 40,000  Level Albuquerque Center
12:37AM 35.1986 -108.1003 248° West 385 443 40,000  Level Albuquerque Center
12:38AM 35.1522 -108.2347 247° West 384 442 40,000  Level Albuquerque Center
12:39AM 35.1119 -108.3517 247° West 387 445 40,000  Level Albuquerque Center
12:40AM 35.0722 -108.4692 248° West 389 448 40,000  Level Albuquerque Center
12:41AM 35.0233 -108.6114 247° West 400 460 40,000  Level Albuquerque Center
12:42AM 34.9819 -108.7289 247° West 396 456 40,000  Level Albuquerque Center
12:43AM 34.9417 -108.8461 247° West 392 451 40,000  Level Albuquerque Center
12:44AM 34.9000 -108.9622 246° West 390 449 40,000  Level Albuquerque Center
12:45AM 34.8533 -109.0989 247° West 392 451 40,000  Level Albuquerque Center
12:46AM 34.8114 -109.2178 247° West 395 455 40,000  Level Albuquerque Center
12:47AM 34.7658 -109.3347 245° Southwest 397 457 40,000  Level Albuquerque Center
12:48AM 34.7100 -109.4661 243° Southwest 394 453 40,000  Level Albuquerque Center
12:49AM 34.6608 -109.5772 242° Southwest 391 450 40,000  Level Albuquerque Center
12:50AM 34.6133 -109.6933 244° Southwest 397 457 40,000  Level Albuquerque Center
12:51AM 34.5572 -109.8281 243° Southwest 399 459 40,000  Level Albuquerque Center
12:52AM 34.5083 -109.9433 243° Southwest 401 461 40,000  Level Albuquerque Center
12:53AM 34.4603 -110.0594 243° Southwest 402 463 40,000 -900 Level Albuquerque Center
12:54AM 34.4058 -110.1881 243° Southwest 390 449 38,200 -2,160 Descending Albuquerque Center
12:55AM 34.3594 -110.2958 242° Southwest 381 438 35,700 -2,640 Descending Albuquerque Center
12:56AM 34.3119 -110.4156 244° Southwest 385 443 32,900 -2,460 Descending Albuquerque Center
12:57AM 34.2656 -110.5150 241° Southwest 378 435 30,800 -2,100 Descending Albuquerque Center
12:58AM 34.2194 -110.6228 243° Southwest 367 422 28,700 -2,280 Descending Albuquerque Center
12:59AM 34.1706 -110.7369 243° Southwest 357 411 26,300 -2,280 Descending Albuquerque Center
01:00AM 34.1264 -110.8381 242° Southwest 345 397 24,100 -2,160 Descending Albuquerque Center
01:01AM 34.0853 -110.9350 243° Southwest 333 383 22,000 -2,040 Descending Albuquerque Center
01:02AM 34.0447 -111.0292 243° Southwest 321 369 20,000 -1,980 Descending Albuquerque Center
01:03AM 34.0056 -111.1211 243° Southwest 312 359 18,100 -2,040 Descending Albuquerque Center
01:04AM 33.9658 -111.2114 242° Southwest 308 354 16,000 -2,040 Descending Albuquerque Center
01:05AM 33.9286 -111.2992 243° Southwest 298 343 14,100 -1,740 Descending Albuquerque Center
01:06AM 33.8900 -111.3872 242° Southwest 297 342 12,600 -1,500 Descending Albuquerque Center
01:07AM 33.8347 -111.4467 222° Southwest 274 315 11,100 -960 Descending Albuquerque Center
01:08AM 33.7767 -111.4944 214° Southwest 256 295 10,700 -720 Descending Albuquerque Center
01:09AM 33.7264 -111.5394 217° Southwest 232 267 9,700 -1,140 Descending Albuquerque Center
01:10AM 33.6750 -111.5828 215° Southwest 226 260 8,500 -1,080 Descending Albuquerque Center
01:11AM 33.6253 -111.6286 218° Southwest 225 259 7,600 -960 Descending Albuquerque Center
01:12AM 33.5836 -111.6825 227° Southwest 221 254 6,600 -1,020 Descending Albuquerque Center
01:13AM 33.5419 -111.7342 226° Southwest 217 250 5,600 -960 Descending Albuquerque Center
01:14AM 33.5044 -111.7878 230° Southwest 213 245 4,700 -600 Descending Albuquerque Center
01:15AM 33.4697 -111.8383 231° Southwest 206 237 4,500 -720 Descending Albuquerque Center
01:16AM 33.4467 -111.8717 230° Southwest 159 183 3,300 -1,080 Descending Albuquerque Center
01:17AM 33.4303 -111.9094 243° Southwest 140 161 2,400 -780 Descending Albuquerque Center
01:18AM 33.4325 -111.9525 274° West 131 151 1,800 -480 Descending Albuquerque Center
01:19AM 33.4336 -112.0042 271° West 130 150 1,500 -300 Descending Albuquerque Center
01:21AM 33.4333 -112.0000 251° West  Level FlightAware Approximate